< < Back
Terminal Aerodrome Forecast


Current Version              Previous Versions:   1  2  3  4  5  6  7  8  9  

Terminal Aerodrome Forecast

982
FTUS42 KCHS 281738
TAFCHS
TAF
KCHS 281738Z 2818/2918 04010KT P6SM VCSH SCT035 BKN100
     FM282000 09010KT P6SM SCT040
     FM290200 05003KT P6SM FEW025
     FM291530 06009KT P6SM SCT035=

Latest METAR

303
SAUS80 KWBC 290100
MTRCHS
METAR KCHS 290056Z 05005KT 10SM FEW090 FEW250 26/23 A3006 RMK AO2 SLP177
T02560233


USA.gov is the U.S. government's official web portal to all federal, state and local government web resources and services.